Time;durP1;ratioP1;P1;durP2;ratioP2;P2;SDS_P1;SDS_P2;PMS_P1;PMS_P2;Temp;Humidity;BMP_temperature;BMP_pressure;BME280_temperature;BME280_humidity;BME280_pressure;Samples;Min_cycle;Max_cycle;Signal;HPM_P1;HPM_P2
2022/01/09 00:01:21;;;;;;;49.97;18.20;;;;;;;-2.57;100.00;97836.16;4375453;32;20040;-76
2022/01/09 00:03:49;;;;;;;53.63;18.15;;;;;;;-2.65;100.00;97838.13;4376772;32;20048;-76
2022/01/09 00:06:15;;;;;;;57.40;19.98;;;;;;;-2.82;100.00;97822.63;4386002;32;20057;-75
2022/01/09 00:08:43;;;;;;;57.95;19.62;;;;;;;-2.79;100.00;97829.34;4384455;32;20057;-76
2022/01/09 00:11:12;;;;;;;56.53;18.48;;;;;;;-2.92;100.00;97828.25;4384756;32;20432;-78
2022/01/09 00:13:38;;;;;;;50.58;17.33;;;;;;;-2.93;100.00;97834.50;4385419;32;20043;-75
2022/01/09 00:16:05;;;;;;;60.90;19.95;;;;;;;-3.35;100.00;97766.97;4385617;32;20045;-75
2022/01/09 00:18:32;;;;;;;52.95;20.58;;;;;;;-2.96;100.00;97832.25;4385812;32;20323;-77
2022/01/09 00:21:05;;;;;;;52.67;17.37;;;;;;;-2.99;100.00;97837.13;4385145;32;20085;-75
2022/01/09 00:23:38;;;;;;;52.40;18.65;;;;;;;-3.26;100.00;97788.72;4380236;32;20050;-75
2022/01/09 00:26:06;;;;;;;65.18;22.48;;;;;;;-3.13;100.00;97815.13;4385726;32;20032;-75
2022/01/09 00:28:33;;;;;;;54.42;20.85;;;;;;;-3.15;100.00;97822.41;4385408;32;20383;-75
2022/01/09 00:31:01;;;;;;;48.97;19.58;;;;;;;-3.07;100.00;97830.16;4384628;32;20035;-76
2022/01/09 00:33:27;;;;;;;50.75;19.00;;;;;;;-3.11;100.00;97828.94;4370381;32;20035;-78
2022/01/09 00:35:54;;;;;;;48.70;19.35;;;;;;;-3.47;100.00;97778.03;4372409;32;20403;-78
2022/01/09 00:38:21;;;;;;;51.47;19.73;;;;;;;-3.25;100.00;97809.59;4386383;32;20034;-74
2022/01/09 00:40:48;;;;;;;54.83;19.83;;;;;;;-3.25;100.00;97821.94;4385569;32;20035;-76
2022/01/09 00:43:14;;;;;;;62.62;21.40;;;;;;;-3.31;100.00;97821.69;4384404;32;20440;-78
2022/01/09 00:45:42;;;;;;;65.43;21.48;;;;;;;-3.30;100.00;97812.78;4370218;32;20047;-78
2022/01/09 00:48:09;;;;;;;60.58;20.95;;;;;;;-3.58;100.00;97768.00;4384713;32;20517;-76
2022/01/09 00:50:38;;;;;;;63.97;21.27;;;;;;;-3.33;100.00;97810.53;4385646;32;20064;-75
2022/01/09 00:53:05;;;;;;;61.42;22.48;;;;;;;-3.36;100.00;97799.56;4370998;32;20045;-74
2022/01/09 00:55:32;;;;;;;52.97;22.65;;;;;;;-3.37;100.00;97798.75;4385469;32;20034;-75
2022/01/09 00:57:59;;;;;;;58.65;22.52;;;;;;;-3.49;100.00;97785.28;4383499;32;20080;-76
2022/01/09 01:00:25;;;;;;;66.30;23.38;;;;;;;-3.42;100.00;97769.56;4384755;32;20449;-75
2022/01/09 01:02:58;;;;;;;60.17;23.33;;;;;;;-3.53;100.00;97772.72;4384729;32;20386;-76
2022/01/09 01:05:25;;;;;;;57.38;22.62;;;;;;;-3.65;100.00;97748.75;4372181;32;20032;-75
2022/01/09 01:07:52;;;;;;;65.55;23.62;;;;;;;-3.48;100.00;97786.09;4383579;32;20034;-78
2022/01/09 01:10:18;;;;;;;65.55;24.67;;;;;;;-3.48;100.00;97780.84;4385042;32;20073;-77
2022/01/09 01:12:45;;;;;;;63.50;21.95;;;;;;;-3.78;100.00;97722.31;4379263;32;20069;-74
2022/01/09 01:15:12;;;;;;;64.53;21.75;;;;;;;-3.72;100.00;97735.53;4381413;32;20035;-74
2022/01/09 01:17:40;;;;;;;64.78;25.33;;;;;;;-3.60;100.00;97748.16;4384052;32;20031;-82
2022/01/09 01:20:08;;;;;;;62.65;20.55;;;;;;;-3.74;100.00;97724.38;4383472;32;20074;-78
2022/01/09 01:22:35;;;;;;;56.85;24.65;;;;;;;-3.55;100.00;97745.78;4371706;32;20396;-74
2022/01/09 01:25:04;;;;;;;61.33;21.73;;;;;;;-3.98;100.00;97682.72;4387750;32;20031;-74
2022/01/09 01:27:30;;;;;;;72.55;23.52;;;;;;;-3.93;100.00;97694.25;4386553;32;20042;-74
2022/01/09 01:29:57;;;;;;;60.97;22.27;;;;;;;-3.69;100.00;97732.50;4386502;32;20096;-75
2022/01/09 01:32:24;;;;;;;58.72;23.20;;;;;;;-3.63;100.00;97740.66;4374507;32;20040;-74
2022/01/09 01:34:51;;;;;;;69.22;24.55;;;;;;;-3.67;100.00;97735.78;4387398;32;20035;-74
2022/01/09 01:37:18;;;;;;;66.05;24.33;;;;;;;-3.88;100.00;97702.44;4387192;32;20039;-74
2022/01/09 01:39:44;;;;;;;76.28;26.90;;;;;;;-3.96;100.00;97673.59;4385917;32;20410;-79
2022/01/09 01:42:11;;;;;;;59.65;22.67;;;;;;;-3.85;100.00;97695.94;4387839;32;20046;-75
2022/01/09 01:44:43;;;;;;;57.75;21.08;;;;;;;-4.02;100.00;97666.47;4383942;32;20065;-75
2022/01/09 01:47:09;;;;;;;59.97;23.10;;;;;;;-4.24;100.00;97623.66;4373289;32;20387;-74
2022/01/09 01:49:36;;;;;;;72.05;27.52;;;;;;;-3.71;100.00;97708.22;4371937;32;20040;-78
2022/01/09 01:52:04;;;;;;;75.18;26.87;;;;;;;-4.04;100.00;97666.69;4372802;32;20032;-75
2022/01/09 01:54:32;;;;;;;66.25;22.45;;;;;;;-3.77;100.00;97698.44;4386777;32;20051;-74
2022/01/09 01:56:59;;;;;;;69.62;25.75;;;;;;;-3.80;100.00;97698.81;4371431;32;20039;-75
2022/01/09 01:59:26;;;;;;;70.37;22.95;;;;;;;-3.82;100.00;97700.84;4381421;32;20061;-76
2022/01/09 02:01:52;;;;;;;64.72;24.50;;;;;;;-3.85;100.00;97696.75;4384220;32;20101;-77
2022/01/09 02:04:19;;;;;;;74.10;23.70;;;;;;;-3.81;100.00;97702.47;4385671;32;20039;-77
2022/01/09 02:06:46;;;;;;;56.28;22.23;;;;;;;-3.99;100.00;97673.97;4370403;32;20035;-76
2022/01/09 02:09:12;;;;;;;68.47;25.23;;;;;;;-3.84;100.00;97694.97;4379596;32;20376;-75
2022/01/09 02:11:39;;;;;;;72.50;24.83;;;;;;;-3.85;100.00;97691.50;4373785;32;20425;-75
2022/01/09 02:14:06;;;;;;;65.43;22.42;;;;;;;-3.86;100.00;97694.31;4385524;32;20065;-74
2022/01/09 02:16:32;;;;;;;66.22;23.25;;;;;;;-3.88;100.00;97689.28;4372657;32;20177;-75
2022/01/09 02:19:02;;;;;;;64.80;23.85;;;;;;;-3.94;100.00;97676.03;4387011;32;20068;-75
2022/01/09 02:21:29;;;;;;;59.53;22.48;;;;;;;-3.93;100.00;97680.31;4369718;32;20038;-76
2022/01/09 02:23:55;;;;;;;70.32;23.45;;;;;;;-3.97;100.00;97677.25;4385748;32;20069;-76
2022/01/09 02:26:25;;;;;;;62.67;22.87;;;;;;;-3.95;100.00;97684.97;4386382;32;20976;-74
2022/01/09 02:28:52;;;;;;;73.20;25.62;;;;;;;-3.97;100.00;97677.25;4387296;32;20154;-75
2022/01/09 02:31:19;;;;;;;73.50;24.08;;;;;;;-4.28;100.00;97632.91;4386297;32;20031;-75
2022/01/09 02:33:46;;;;;;;53.20;20.20;;;;;;;-4.08;100.00;97675.94;4381999;32;20434;-79
2022/01/09 02:36:12;;;;;;;56.13;20.05;;;;;;;-4.33;100.00;97645.81;4370349;32;20256;-76
2022/01/09 02:38:39;;;;;;;68.15;22.92;;;;;;;-4.05;100.00;97686.09;4371340;32;20412;-76
2022/01/09 02:41:06;;;;;;;51.13;17.60;;;;;;;-4.13;100.00;97688.84;4371786;32;20036;-74
2022/01/09 02:43:32;;;;;;;65.90;20.33;;;;;;;-4.10;100.00;97682.38;4370163;32;20073;-76
2022/01/09 02:46:57;;;;;;;62.53;23.27;;;;;;;-4.18;100.00;97678.06;4379773;32;20039;-74
2022/01/09 02:48:46;;;;;;;69.70;23.75;;;;;;;-4.44;100.00;97634.78;4377446;32;20032;-76
2022/01/09 02:51:15;;;;;;;59.35;25.23;;;;;;;-4.26;100.00;97662.44;4368646;32;20054;-79
2022/01/09 02:53:49;;;;;;;55.30;22.55;;;;;;;-4.52;100.00;97627.03;4378567;32;20047;-75
2022/01/09 02:56:16;;;;;;;69.20;26.42;;;;;;;-4.59;100.00;97610.41;4386339;32;20031;-75
2022/01/09 02:58:44;;;;;;;68.65;26.33;;;;;;;-4.38;100.00;97652.41;4385690;32;20053;-77
2022/01/09 03:03:45;;;;;;;57.05;20.88;;;;;;;-4.41;100.00;97639.66;4385727;32;20424;-75
2022/01/09 03:06:11;;;;;;;60.85;23.80;;;;;;;-4.48;100.00;97633.53;4386433;32;20061;-75
2022/01/09 03:08:38;;;;;;;56.75;19.75;;;;;;;-4.76;100.00;97604.56;4387065;32;20162;-79
2022/01/09 03:11:06;;;;;;;67.22;22.98;;;;;;;-4.45;100.00;97642.84;4385174;32;20039;-75
2022/01/09 03:13:33;;;;;;;67.03;22.58;;;;;;;-4.75;100.00;97600.94;4386814;32;20076;-73
2022/01/09 03:15:59;;;;;;;64.10;20.88;;;;;;;-4.52;100.00;97637.53;4386380;32;20035;-74
2022/01/09 03:18:26;;;;;;;68.15;21.45;;;;;;;-4.59;100.00;97628.78;4372662;32;20101;-74
2022/01/09 03:20:52;;;;;;;59.08;21.33;;;;;;;-4.53;100.00;97635.91;4383830;32;20333;-75
2022/01/09 03:23:19;;;;;;;51.78;19.23;;;;;;;-4.78;100.00;97599.50;4385499;32;20364;-74
2022/01/09 03:25:46;;;;;;;62.33;20.27;;;;;;;-4.86;100.00;97583.06;4385320;32;20431;-75
2022/01/09 03:28:12;;;;;;;71.75;22.10;;;;;;;-4.57;100.00;97619.69;4386670;32;20057;-75
2022/01/09 03:30:38;;;;;;;49.53;19.60;;;;;;;-4.52;100.00;97626.22;4386946;32;20045;-74
2022/01/09 03:33:05;;;;;;;58.53;20.40;;;;;;;-4.66;100.00;97622.63;4369010;32;20057;-77
2022/01/09 03:35:32;;;;;;;63.15;21.15;;;;;;;-4.60;100.00;97624.53;4386392;32;20221;-74
2022/01/09 03:37:58;;;;;;;67.55;21.92;;;;;;;-4.66;100.00;97630.50;4386542;32;20047;-74
2022/01/09 03:40:26;;;;;;;68.37;22.90;;;;;;;-4.64;100.00;97628.50;4384980;32;20063;-73
2022/01/09 03:42:53;;;;;;;66.47;24.30;;;;;;;-4.76;100.00;97620.31;4386365;32;20028;-76
2022/01/09 03:45:21;;;;;;;71.82;26.20;;;;;;;-5.00;100.00;97571.59;4374468;32;20023;-74
2022/01/09 03:47:48;;;;;;;67.20;24.52;;;;;;;-5.02;100.00;97574.41;4388937;32;20043;-75
2022/01/09 03:50:17;;;;;;;67.00;23.40;;;;;;;-4.85;100.00;97606.50;4376063;32;20027;-74
2022/01/09 03:52:46;;;;;;;60.47;23.17;;;;;;;-4.78;100.00;97617.88;4387801;32;20032;-77
2022/01/09 03:55:14;;;;;;;63.87;24.08;;;;;;;-4.75;100.00;97608.81;4386016;32;20045;-74
2022/01/09 03:57:41;;;;;;;58.33;21.30;;;;;;;-4.79;100.00;97608.37;4386337;32;20404;-74
2022/01/09 04:00:11;;;;;;;55.78;22.10;;;;;;;-4.80;100.00;97606.75;4385951;32;20392;-75
2022/01/09 04:02:40;;;;;;;59.85;22.27;;;;;;;-5.08;100.00;97555.97;4386107;32;20074;-75
2022/01/09 04:05:08;;;;;;;67.60;23.75;;;;;;;-5.05;100.00;97566.09;4369536;32;20056;-76
2022/01/09 04:07:36;;;;;;;63.45;23.12;;;;;;;-4.80;100.00;97598.88;4385711;32;20069;-75
2022/01/09 04:10:04;;;;;;;64.87;24.45;;;;;;;-4.81;100.00;97597.25;4371834;32;20404;-75
2022/01/09 04:12:35;;;;;;;74.45;26.02;;;;;;;-5.04;100.00;97557.22;4385765;32;20368;-75
2022/01/09 04:15:06;;;;;;;55.92;21.75;;;;;;;-4.85;100.00;97580.25;4372112;32;20071;-77
2022/01/09 04:17:51;;;;;;;68.07;25.15;;;;;;;-4.76;100.00;97594.84;4382165;32;20247;-74
2022/01/09 04:20:22;;;;;;;65.68;25.17;;;;;;;-4.77;100.00;97593.25;4385356;32;20032;-75
2022/01/09 04:22:51;;;;;;;61.90;23.65;;;;;;;-4.76;100.00;97594.06;4385309;32;20040;-78
2022/01/09 04:25:18;;;;;;;54.10;21.45;;;;;;;-5.14;100.00;97529.47;4384794;32;20040;-75
2022/01/09 04:27:46;;;;;;;52.22;20.37;;;;;;;-4.95;100.00;97548.22;4387720;32;20486;-74
2022/01/09 04:30:13;;;;;;;51.92;21.23;;;;;;;-4.80;100.00;97571.81;4376835;32;20042;-74
2022/01/09 04:32:40;;;;;;;55.10;24.27;;;;;;;-4.96;100.00;97551.88;4383558;32;20151;-77
2022/01/09 04:35:07;;;;;;;65.12;26.25;;;;;;;-4.92;100.00;97553.09;4374312;32;20048;-78
2022/01/09 04:37:34;;;;;;;59.10;21.70;;;;;;;-4.68;100.00;97585.25;4370470;32;20040;-74
2022/01/09 04:40:03;;;;;;;67.45;25.45;;;;;;;-4.69;100.00;97575.72;4369473;32;20031;-76
2022/01/09 04:42:38;;;;;;;57.53;22.67;;;;;;;-4.73;100.00;97577.13;4360499;32;20023;-75
2022/01/09 04:45:07;;;;;;;57.58;20.85;;;;;;;-4.65;100.00;97569.13;4383968;32;20177;-76
2022/01/09 04:47:34;;;;;;;59.10;22.35;;;;;;;-4.73;100.00;97566.62;4385717;32;20139;-74
2022/01/09 04:50:01;;;;;;;59.13;24.25;;;;;;;-4.64;100.00;97570.72;4384831;32;20060;-76
2022/01/09 04:52:33;;;;;;;59.88;21.92;;;;;;;-4.92;100.00;97526.84;4385596;32;20458;-75
2022/01/09 04:55:00;;;;;;;50.42;17.80;;;;;;;-4.72;100.00;97547.22;4383775;32;20420;-78
2022/01/09 04:57:27;;;;;;;60.17;19.87;;;;;;;-4.86;100.00;97505.09;4385701;32;20055;-75
2022/01/09 04:59:54;;;;;;;53.40;19.25;;;;;;;-4.77;100.00;97503.97;4387512;32;20047;-75
2022/01/09 05:02:20;;;;;;;64.37;22.25;;;;;;;-4.87;100.00;97492.16;4374928;32;20031;-74
2022/01/09 05:04:47;;;;;;;58.50;22.40;;;;;;;-4.54;100.00;97541.53;4385483;32;20039;-73
2022/01/09 05:07:13;;;;;;;59.22;25.00;;;;;;;-4.58;100.00;97533.19;4371398;32;20311;-74
2022/01/09 05:09:40;;;;;;;62.33;23.40;;;;;;;-4.46;100.00;97542.19;4387971;32;20097;-74
2022/01/09 05:12:07;;;;;;;60.67;23.83;;;;;;;-4.47;100.00;97535.31;4386678;32;20069;-74
2022/01/09 05:14:33;;;;;;;63.10;24.75;;;;;;;-4.73;100.00;97491.25;4372729;32;20357;-74
2022/01/09 05:17:00;;;;;;;61.10;25.17;;;;;;;-4.53;100.00;97520.31;4388362;32;20415;-74
2022/01/09 05:19:32;;;;;;;59.63;23.17;;;;;;;-4.45;100.00;97533.31;4385808;32;20055;-74
2022/01/09 05:22:00;;;;;;;63.45;25.92;;;;;;;-4.89;100.00;97463.47;4387975;32;20069;-74
2022/01/09 05:24:27;;;;;;;55.78;23.10;;;;;;;-4.49;100.00;97526.00;4387714;32;20394;-75
2022/01/09 05:26:54;;;;;;;66.80;25.98;;;;;;;-4.78;100.00;97476.06;4387672;32;20399;-75
2022/01/09 05:29:21;;;;;;;58.97;23.52;;;;;;;-4.45;100.00;97532.50;4384520;32;20389;-75
2022/01/09 05:31:48;;;;;;;65.68;23.20;;;;;;;-4.41;100.00;97539.81;4386900;32;20057;-73
2022/01/09 05:34:15;;;;;;;66.18;23.90;;;;;;;-4.71;100.00;97491.06;4387586;32;20038;-79
2022/01/09 05:36:42;;;;;;;69.10;23.27;;;;;;;-4.70;100.00;97490.09;4386079;32;20044;-76
2022/01/09 05:39:09;;;;;;;66.32;24.60;;;;;;;-4.32;100.00;97537.03;4385906;32;20075;-76
2022/01/09 05:41:36;;;;;;;59.90;21.40;;;;;;;-4.60;100.00;97498.44;4387574;32;20047;-74
2022/01/09 05:44:02;;;;;;;53.45;24.35;;;;;;;-4.49;100.00;97516.28;4387753;32;20909;-74
2022/01/09 05:46:29;;;;;;;56.15;21.73;;;;;;;-4.40;100.00;97528.28;4386979;32;20124;-74
2022/01/09 05:48:55;;;;;;;56.55;23.42;;;;;;;-4.62;100.00;97498.63;4385134;32;20159;-76
2022/01/09 05:51:22;;;;;;;52.22;20.60;;;;;;;-4.39;100.00;97547.50;4385786;32;20061;-77
2022/01/09 05:53:49;;;;;;;61.67;24.92;;;;;;;-4.42;100.00;97547.88;4369444;32;20090;-76
2022/01/09 05:56:15;;;;;;;45.83;16.10;;;;;;;-4.51;100.00;97559.53;4386125;32;20366;-76
2022/01/09 05:58:42;;;;;;;65.03;26.17;;;;;;;-4.62;100.00;97547.72;4373049;32;20057;-77
2022/01/09 06:01:09;;;;;;;63.35;24.42;;;;;;;-4.59;100.00;97552.59;4384554;32;20482;-74
2022/01/09 06:03:35;;;;;;;55.50;21.23;;;;;;;-4.65;100.00;97555.97;4379415;32;20060;-75
2022/01/09 06:06:03;;;;;;;60.45;26.35;;;;;;;-4.89;100.00;97515.97;4376838;32;20032;-74
2022/01/09 06:08:29;;;;;;;44.78;18.65;;;;;;;-4.69;100.00;97560.81;4372640;32;20069;-74
2022/01/09 06:10:56;;;;;;;50.10;19.08;;;;;;;-4.71;100.00;97560.16;4372029;32;20064;-74
2022/01/09 06:13:22;;;;;;;57.75;22.83;;;;;;;-4.77;100.00;97556.50;4388037;32;20189;-74
2022/01/09 06:15:49;;;;;;;55.92;21.90;;;;;;;-4.99;100.00;97520.72;4387730;32;20078;-75
2022/01/09 06:18:22;;;;;;;50.12;20.98;;;;;;;-4.79;100.00;97568.97;4384861;32;20065;-75
2022/01/09 06:20:49;;;;;;;61.37;22.40;;;;;;;-4.82;100.00;97569.37;4387304;32;20092;-74
2022/01/09 06:23:20;;;;;;;61.67;23.87;;;;;;;-4.76;100.00;97579.09;4387307;32;20064;-75
2022/01/09 06:25:47;;;;;;;54.00;24.27;;;;;;;-5.04;100.00;97534.41;4387268;32;20057;-73
2022/01/09 06:28:15;;;;;;;63.38;24.67;;;;;;;-5.05;100.00;97537.22;4385620;32;20039;-73
2022/01/09 06:30:42;;;;;;;64.30;24.40;;;;;;;-4.81;100.00;97576.22;4384983;32;20399;-73
2022/01/09 06:33:10;;;;;;;58.38;21.60;;;;;;;-5.08;100.00;97532.34;4385861;32;20062;-74
2022/01/09 06:35:39;;;;;;;58.90;22.75;;;;;;;-4.75;100.00;97575.50;4386028;32;20082;-74
2022/01/09 06:38:07;;;;;;;52.75;22.45;;;;;;;-4.77;100.00;97582.75;4373280;32;20023;-78
2022/01/09 06:40:34;;;;;;;70.35;25.52;;;;;;;-4.82;100.00;97585.13;4385990;32;20027;-73
2022/01/09 06:43:01;;;;;;;68.40;24.87;;;;;;;-5.11;100.00;97539.56;4387177;32;20073;-73
2022/01/09 06:45:28;;;;;;;70.62;26.20;;;;;;;-4.94;100.00;97576.09;4387396;32;20155;-75
2022/01/09 06:47:56;;;;;;;62.33;23.85;;;;;;;-5.02;100.00;97576.22;4385744;32;20027;-74
2022/01/09 06:50:23;;;;;;;69.40;26.70;;;;;;;-5.27;100.00;97542.44;4371461;32;20161;-78
2022/01/09 06:52:50;;;;;;;53.53;22.25;;;;;;;-4.99;100.00;97596.88;4373367;32;20092;-75
2022/01/09 06:55:17;;;;;;;66.57;25.80;;;;;;;-5.27;100.00;97558.19;4384804;32;20360;-74
2022/01/09 06:57:44;;;;;;;61.55;23.12;;;;;;;-5.00;100.00;97603.09;4371446;32;20040;-73
2022/01/09 07:00:12;;;;;;;61.92;24.40;;;;;;;-4.98;100.00;97595.84;4378327;32;20466;-73
2022/01/09 07:02:38;;;;;;;65.05;26.08;;;;;;;-5.05;100.00;97600.22;4384213;32;20027;-78
2022/01/09 07:05:05;;;;;;;59.38;21.05;;;;;;;-5.11;100.00;97597.31;4386428;32;20035;-74
2022/01/09 07:07:32;;;;;;;58.47;22.30;;;;;;;-5.01;100.00;97606.72;4373657;32;20066;-73
2022/01/09 07:09:59;;;;;;;64.50;25.67;;;;;;;-5.02;100.00;97610.34;4386423;32;20171;-74
2022/01/09 07:12:25;;;;;;;53.22;22.15;;;;;;;-5.05;100.00;97603.66;4373384;32;20056;-73
2022/01/09 07:14:52;;;;;;;59.35;20.85;;;;;;;-5.05;100.00;97594.97;4385039;32;20353;-78
2022/01/09 07:17:18;;;;;;;64.40;25.23;;;;;;;-5.04;100.00;97596.56;4386677;32;20044;-73
2022/01/09 07:19:45;;;;;;;66.82;21.27;;;;;;;-5.08;100.00;97595.34;4386815;32;20061;-74
2022/01/09 07:22:12;;;;;;;56.37;22.55;;;;;;;-5.03;100.00;97606.09;4384646;32;20039;-74
2022/01/09 07:24:38;;;;;;;54.75;20.85;;;;;;;-5.07;100.00;97600.41;4384650;32;20061;-73
2022/01/09 07:27:05;;;;;;;74.57;25.40;;;;;;;-5.23;100.00;97572.56;4386736;32;20047;-80
2022/01/09 07:29:32;;;;;;;65.12;22.77;;;;;;;-5.00;100.00;97618.84;4371627;32;20028;-74
2022/01/09 07:31:59;;;;;;;67.87;23.38;;;;;;;-5.05;100.00;97594.97;4386401;32;20352;-75
2022/01/09 07:34:26;;;;;;;68.45;27.87;;;;;;;-4.97;100.00;97608.78;4383358;32;20039;-74
2022/01/09 07:36:53;;;;;;;74.80;25.77;;;;;;;-5.19;100.00;97557.25;4383626;32;20409;-74
2022/01/09 07:39:19;;;;;;;58.80;21.42;;;;;;;-5.14;100.00;97552.25;4383318;32;20108;-78
2022/01/09 07:41:46;;;;;;;63.47;26.23;;;;;;;-5.17;100.00;97544.75;4382423;32;20039;-74
2022/01/09 07:44:13;;;;;;;65.97;25.90;;;;;;;-5.24;100.00;97544.69;4375387;32;20028;-74
2022/01/09 07:46:40;;;;;;;64.57;27.13;;;;;;;-4.85;100.00;97596.00;4370170;32;20024;-74
2022/01/09 07:49:06;;;;;;;66.68;26.60;;;;;;;-4.98;100.00;97564.34;4366997;32;20040;-73
2022/01/09 07:51:33;;;;;;;64.25;23.10;;;;;;;-5.06;100.00;97535.59;4371372;32;20066;-80
2022/01/09 07:54:00;;;;;;;63.38;26.23;;;;;;;-5.00;100.00;97547.97;4384578;32;20235;-74
2022/01/09 07:56:26;;;;;;;64.15;27.30;;;;;;;-4.78;100.00;97570.59;4381909;32;20158;-74
2022/01/09 07:58:53;;;;;;;61.80;25.60;;;;;;;-4.68;100.00;97574.75;4376636;32;20159;-75
2022/01/09 08:01:19;;;;;;;71.37;27.45;;;;;;;-4.53;100.00;97583.38;4380457;32;20124;-75
2022/01/09 08:03:46;;;;;;;68.15;26.37;;;;;;;-4.50;100.00;97575.13;4379171;32;20051;-74
2022/01/09 08:06:12;;;;;;;62.75;25.17;;;;;;;-4.41;100.00;97581.84;4381345;32;20054;-74
2022/01/09 08:08:39;;;;;;;66.82;24.10;;;;;;;-4.29;100.00;97582.16;4372223;32;20096;-78
2022/01/09 08:11:06;;;;;;;62.15;26.60;;;;;;;-4.44;100.00;97537.56;4386356;32;20112;-74
2022/01/09 08:13:33;;;;;;;64.32;26.02;;;;;;;-4.17;100.00;97577.19;4385107;32;20027;-76
2022/01/09 08:15:59;;;;;;;65.03;30.55;;;;;;;-4.50;100.00;97504.19;4385271;32;20066;-75
2022/01/09 08:18:26;;;;;;;63.13;23.23;;;;;;;-4.03;100.00;97576.28;4385165;32;20047;-77
2022/01/09 08:20:53;;;;;;;72.15;26.92;;;;;;;-4.20;100.00;97535.50;4378233;32;20035;-74
2022/01/09 08:23:19;;;;;;;63.85;22.77;;;;;;;-3.87;100.00;97577.00;4377356;32;20480;-76
2022/01/09 08:25:46;;;;;;;69.40;29.10;;;;;;;-4.09;100.00;97536.78;4380968;32;20372;-79
2022/01/09 08:28:12;;;;;;;56.63;23.42;;;;;;;-3.83;100.00;97583.47;4384279;32;20031;-74
2022/01/09 08:30:39;;;;;;;58.42;22.75;;;;;;;-3.65;100.00;97586.41;4371709;32;20056;-76
2022/01/09 08:33:06;;;;;;;62.05;25.48;;;;;;;-3.52;100.00;97584.87;4378910;32;20054;-77
2022/01/09 08:35:32;;;;;;;61.50;25.70;;;;;;;-3.71;100.00;97550.38;4362483;32;20185;-74
2022/01/09 08:37:59;;;;;;;78.40;27.70;;;;;;;-3.66;100.00;97532.16;4373956;32;20518;-76
2022/01/09 08:40:26;;;;;;;73.85;26.98;;;;;;;-3.59;100.00;97539.28;4371894;32;20047;-74
2022/01/09 08:42:53;;;;;;;63.72;24.83;;;;;;;-3.25;100.00;97591.06;4385600;32;20064;-75
2022/01/09 08:45:22;;;;;;;65.30;27.95;;;;;;;-3.23;100.00;97572.44;4384006;32;20023;-75
2022/01/09 08:47:49;;;;;;;62.75;23.90;;;;;;;-3.06;100.00;97588.69;4377469;32;20074;-75
2022/01/09 08:50:18;;;;;;;54.85;24.50;;;;;;;-3.00;100.00;97593.16;4367303;32;20386;-75
2022/01/09 08:52:45;;;;;;;49.15;21.77;;;;;;;-3.00;100.00;97587.91;4356383;32;20067;-75
2022/01/09 08:55:13;;;;;;;68.25;26.65;;;;;;;-2.90;100.00;97592.78;4374852;32;20330;-74
2022/01/09 08:57:40;;;;;;;62.38;24.25;;;;;;;-2.97;100.00;97577.81;4361357;32;20053;-78
2022/01/09 09:00:07;;;;;;;62.40;22.85;;;;;;;-2.83;100.00;97593.63;4372567;32;20035;-73
2022/01/09 09:02:34;;;;;;;54.88;21.70;;;;;;;-3.00;100.00;97570.31;4375406;32;20417;-75
2022/01/09 09:05:00;;;;;;;42.72;17.87;;;;;;;-2.83;100.00;97594.44;4378044;32;20043;-75
2022/01/09 09:07:27;;;;;;;63.45;25.95;;;;;;;-2.77;100.00;97590.22;4366710;32;20346;-74
2022/01/09 09:09:54;;;;;;;55.83;21.25;;;;;;;-3.00;100.00;97545.78;4376505;32;20036;-76
2022/01/09 09:12:21;;;;;;;53.75;22.77;;;;;;;-2.62;100.00;97598.72;4384345;32;20023;-76
2022/01/09 09:14:48;;;;;;;54.83;24.35;;;;;;;-2.79;100.00;97565.91;4370612;32;20023;-76
2022/01/09 09:17:15;;;;;;;57.65;22.15;;;;;;;-2.49;100.00;97573.41;4385628;32;20361;-75
2022/01/09 09:19:42;;;;;;;52.42;19.70;;;;;;;-2.33;100.00;97607.31;4375373;32;20065;-78
2022/01/09 09:22:08;;;;;;;53.50;23.92;;;;;;;-2.46;100.00;97575.66;4368664;32;20055;-74
2022/01/09 09:24:35;;;;;;;61.53;25.05;;;;;;;-2.25;100.00;97596.56;4368190;32;20381;-78
2022/01/09 09:27:02;;;;;;;71.15;27.00;;;;;;;-2.43;100.00;97556.78;4369002;32;20424;-76
2022/01/09 09:29:28;;;;;;;55.15;21.02;;;;;;;-2.22;100.00;97585.63;4379547;32;20031;-75
2022/01/09 09:31:56;;;;;;;56.53;23.05;;;;;;;-2.11;100.00;97597.34;4374823;32;20047;-75
2022/01/09 09:34:22;;;;;;;60.50;25.55;;;;;;;-2.14;100.00;97581.12;4378297;32;20055;-75
2022/01/09 09:36:50;;;;;;;55.63;24.20;;;;;;;-2.24;100.00;97545.44;4384678;32;20027;-73
2022/01/09 09:39:17;;;;;;;62.92;25.08;;;;;;;-2.15;100.00;97542.56;4376582;32;20039;-76
2022/01/09 09:41:43;;;;;;;58.22;22.20;;;;;;;-1.89;100.00;97568.94;4379755;32;20035;-75
2022/01/09 09:44:12;;;;;;;52.15;21.70;;;;;;;-1.84;100.00;97570.94;4373823;32;20028;-75
2022/01/09 09:46:39;;;;;;;47.83;22.75;;;;;;;-1.77;100.00;97576.22;4380344;32;20047;-75
2022/01/09 09:49:05;;;;;;;55.30;21.98;;;;;;;-1.72;100.00;97573.78;4378623;32;20028;-74
2022/01/09 09:51:32;;;;;;;83.07;31.10;;;;;;;-1.69;100.00;97568.06;4379483;32;20069;-76
2022/01/09 09:53:59;;;;;;;55.33;21.05;;;;;;;-1.64;100.00;97560.38;4385839;32;20116;-76
2022/01/09 09:56:25;;;;;;;46.67;19.02;;;;;;;-1.50;100.00;97563.75;4377643;32;20440;-74
2022/01/09 09:58:56;;;;;;;49.75;17.42;;;;;;;-1.67;100.00;97531.75;4379903;32;20042;-74
2022/01/09 10:01:30;;;;;;;57.30;21.77;;;;;;;-1.60;100.00;97529.88;4361989;32;20430;-73
2022/01/09 10:04:02;;;;;;;57.28;21.00;;;;;;;-1.30;100.00;97567.16;4375959;32;20081;-73
2022/01/09 10:06:42;;;;;;;57.62;19.85;;;;;;;-1.21;100.00;97559.81;4357682;32;20109;-74
2022/01/09 10:09:23;;;;;;;60.28;21.40;;;;;;;-1.19;100.00;97563.03;4369679;32;20104;-73
2022/01/09 10:11:55;;;;;;;52.60;21.20;;;;;;;-1.11;100.00;97560.16;4358366;32;20054;-74
2022/01/09 10:14:28;;;;;;;54.45;21.58;;;;;;;-1.18;100.00;97537.44;4377756;32;20055;-74
2022/01/09 10:17:04;;;;;;;54.40;24.75;;;;;;;-1.33;100.00;97508.66;4384875;32;20437;-74
2022/01/09 10:19:50;;;;;;;49.05;19.27;;;;;;;-1.03;100.00;97555.66;4367652;32;20410;-75
2022/01/09 10:22:33;;;;;;;49.85;20.20;;;;;;;-1.00;100.00;97556.03;4370790;32;20065;-74
2022/01/09 10:25:36;;;;;;;85.65;28.20;;;;;;;-1.24;100.00;97510.03;4380215;32;20019;-80
2022/01/09 10:28:12;;;;;;;63.33;23.20;;;;;;;-1.13;100.00;97514.66;4372851;32;20053;-74
2022/01/09 10:30:45;;;;;;;78.72;24.10;;;;;;;-0.80;100.00;97540.09;4370468;32;20108;-73
2022/01/09 10:33:14;;;;;;;63.45;21.17;;;;;;;-0.70;100.00;97544.91;4358313;32;20039;-73
2022/01/09 10:35:43;;;;;;;76.20;26.42;;;;;;;-0.69;100.00;97529.84;4372432;32;20099;-74
2022/01/09 10:38:16;;;;;;;69.68;20.88;;;;;;;-0.66;100.00;97534.69;4372505;32;20091;-78
2022/01/09 10:40:54;;;;;;;57.55;20.88;;;;;;;-0.65;100.00;97520.47;4385313;32;20081;-74
2022/01/09 10:43:22;;;;;;;56.58;22.80;;;;;;;-0.90;100.00;97491.34;4359011;32;20372;-74
2022/01/09 10:46:01;;;;;;;57.40;22.87;;;;;;;-0.90;100.00;97486.88;4370334;32;20070;-74
2022/01/09 10:48:43;;;;;;;52.05;20.00;;;;;;;-0.57;100.00;97522.84;4358499;32;20032;-75
2022/01/09 10:51:13;;;;;;;48.65;20.27;;;;;;;-0.77;100.00;97486.78;4371577;32;20045;-74
2022/01/09 10:53:41;;;;;;;57.90;23.58;;;;;;;-0.46;100.00;97529.25;4378975;32;20035;-75
2022/01/09 10:56:14;;;;;;;52.13;20.88;;;;;;;-0.47;100.00;97520.53;4378932;32;20081;-74
2022/01/09 10:58:45;;;;;;;55.75;20.88;;;;;;;-0.69;100.00;97482.25;4385078;32;20053;-75
2022/01/09 11:01:26;;;;;;;56.67;22.02;;;;;;;-0.55;100.00;97478.50;4373277;32;20020;-74
2022/01/09 11:03:59;;;;;;;58.10;22.50;;;;;;;-0.31;100.00;97521.00;4357389;32;20054;-74
2022/01/09 11:06:28;;;;;;;58.30;21.75;;;;;;;-0.58;100.00;97484.19;4372151;32;20132;-74
2022/01/09 11:08:56;;;;;;;59.58;23.38;;;;;;;-0.33;100.00;97512.50;4359104;32;20162;-75
2022/01/09 11:13:53;;;;;;;57.97;21.33;;;;;;;-0.38;100.00;97498.06;4371273;32;20069;-75
2022/01/09 11:19:18;;;;;;;51.95;21.17;;;;;;;-0.21;100.00;97508.09;4386291;32;20076;-75
2022/01/09 11:21:52;;;;;;;45.45;18.67;;;;;;;-0.11;100.00;97511.06;4385453;32;20102;-75